createdAt,value
2019-01-24T00:01:16.420Z,28.80
2019-01-24T00:03:46.718Z,28.80
2019-01-24T00:06:17.061Z,26.90
2019-01-24T00:08:47.498Z,26.17
2019-01-24T00:11:17.879Z,25.37
2019-01-24T00:13:48.340Z,26.37
2019-01-24T00:16:18.798Z,26.83
2019-01-24T00:18:49.097Z,27.20
2019-01-24T00:21:19.441Z,26.13
2019-01-24T00:23:49.729Z,25.87
2019-01-24T00:26:20.098Z,27.23
2019-01-24T00:28:50.519Z,28.23
2019-01-24T00:31:20.854Z,27.43
2019-01-24T00:33:51.218Z,27.23
2019-01-24T00:36:21.539Z,28.57
2019-01-24T00:38:52.080Z,26.87
2019-01-24T00:41:22.549Z,26.93
2019-01-24T00:43:52.972Z,26.83
2019-01-24T00:46:23.370Z,27.77
2019-01-24T00:48:53.911Z,27.80
2019-01-24T00:51:24.315Z,28.40
2019-01-24T00:53:54.720Z,27.20
2019-01-24T00:56:25.035Z,27.73
2019-01-24T00:58:55.484Z,27.40
2019-01-24T01:01:25.781Z,28.93
2019-01-24T01:03:56.239Z,27.37
2019-01-24T01:06:26.679Z,27.47
2019-01-24T01:08:57.140Z,27.60
2019-01-24T01:11:27.492Z,28.57
2019-01-24T01:13:57.939Z,27.50
2019-01-24T01:16:28.312Z,28.53
2019-01-24T01:18:58.692Z,29.00
2019-01-24T01:21:29.089Z,27.60
2019-01-24T01:24:00.654Z,25.93
2019-01-24T01:26:31.009Z,25.93
2019-01-24T01:29:01.446Z,27.37
2019-01-24T01:31:31.993Z,27.17
2019-01-24T01:34:02.372Z,27.60
2019-01-24T01:36:32.805Z,26.03
2019-01-24T01:39:03.655Z,26.50
2019-01-24T01:41:34.038Z,32.17
2019-01-24T01:44:04.748Z,30.83
2019-01-24T01:46:35.234Z,27.93
2019-01-24T01:49:05.987Z,27.10
2019-01-24T01:51:36.414Z,28.07
2019-01-24T01:54:06.964Z,25.87
2019-01-24T01:56:37.418Z,27.77
2019-01-24T01:59:08.345Z,28.90
2019-01-24T02:01:38.798Z,28.33
2019-01-24T02:04:09.264Z,28.83
2019-01-24T02:06:39.712Z,27.10
2019-01-24T02:09:10.889Z,27.27
2019-01-24T02:11:42.571Z,26.23
2019-01-24T02:14:12.828Z,27.87
2019-01-24T02:16:43.215Z,28.13
2019-01-24T02:19:13.613Z,28.13
2019-01-24T02:21:43.975Z,27.20
2019-01-24T02:24:14.367Z,27.87
2019-01-24T02:26:44.780Z,27.80
2019-01-24T02:29:15.224Z,28.67
2019-01-24T02:31:45.680Z,27.63
2019-01-24T02:34:16.101Z,25.37
2019-01-24T02:36:46.546Z,27.03
2019-01-24T02:39:17.058Z,26.23
2019-01-24T02:41:47.408Z,26.50
2019-01-24T02:44:17.755Z,28.40
2019-01-24T02:46:48.208Z,27.93
2019-01-24T02:49:18.572Z,29.43
2019-01-24T02:51:49.479Z,27.53
2019-01-24T02:54:20.137Z,26.50
2019-01-24T02:56:50.642Z,26.40
2019-01-24T02:59:21.140Z,27.13
2019-01-24T03:01:51.589Z,26.10
2019-01-24T03:04:22.017Z,26.67
2019-01-24T03:06:52.499Z,26.90
2019-01-24T03:09:23.106Z,26.70
2019-01-24T03:11:54.162Z,26.43
2019-01-24T03:14:27.130Z,26.17
2019-01-24T03:16:59.814Z,26.83
2019-01-24T03:19:31.588Z,25.33
2019-01-24T03:22:03.114Z,27.63
2019-01-24T03:24:33.551Z,28.00
2019-01-24T03:27:06.301Z,28.40
2019-01-24T03:29:39.783Z,27.87
2019-01-24T03:32:14.388Z,29.10
2019-01-24T03:34:45.328Z,28.27
2019-01-24T03:37:15.768Z,26.33
2019-01-24T03:39:46.263Z,27.80
2019-01-24T03:42:16.667Z,25.80
2019-01-24T03:44:47.044Z,26.20
2019-01-24T03:47:18.611Z,27.63
2019-01-24T03:49:49.120Z,27.13
2019-01-24T03:52:19.552Z,27.60
2019-01-24T03:54:51.153Z,29.40
2019-01-24T03:57:21.634Z,28.73
2019-01-24T03:59:51.982Z,30.83
2019-01-24T04:02:22.302Z,31.17
2019-01-24T04:04:52.710Z,30.33
2019-01-24T04:07:23.118Z,28.33
2019-01-24T04:09:53.631Z,28.57
2019-01-24T04:12:24.089Z,29.17
2019-01-24T04:14:54.556Z,29.40
2019-01-24T04:17:24.917Z,29.60
2019-01-24T04:19:55.371Z,28.23
2019-01-24T04:22:25.866Z,27.60
2019-01-24T04:24:56.695Z,28.97
2019-01-24T04:27:27.194Z,28.87
2019-01-24T04:29:57.692Z,28.03
2019-01-24T04:32:28.054Z,28.10
2019-01-24T04:34:58.462Z,25.60
2019-01-24T04:37:28.875Z,25.70
2019-01-24T04:39:59.302Z,27.73
2019-01-24T04:42:29.678Z,26.73
2019-01-24T04:45:00.290Z,26.27
2019-01-24T04:47:30.724Z,27.47
2019-01-24T04:50:01.518Z,26.43
2019-01-24T04:52:31.881Z,28.00
2019-01-24T04:55:02.347Z,28.33
2019-01-24T04:57:32.728Z,28.60
2019-01-24T05:00:03.142Z,30.03
2019-01-24T05:02:33.563Z,29.63
2019-01-24T05:05:04.260Z,28.07
2019-01-24T05:07:34.775Z,30.43
2019-01-24T05:10:05.963Z,28.17
2019-01-24T05:12:36.401Z,28.07
2019-01-24T05:15:07.365Z,27.77
2019-01-24T05:17:37.711Z,29.53
2019-01-24T05:20:09.379Z,28.97
2019-01-24T05:22:41.061Z,28.87
2019-01-24T05:25:13.306Z,27.70
2019-01-24T05:27:43.837Z,26.60
2019-01-24T05:30:17.701Z,27.47
2019-01-24T05:32:48.034Z,26.30
2019-01-24T05:35:18.436Z,29.53
2019-01-24T05:37:48.923Z,27.77
2019-01-24T05:40:19.423Z,26.43
2019-01-24T05:42:49.834Z,27.30
2019-01-24T05:45:20.314Z,28.47
2019-01-24T05:47:50.759Z,27.73
2019-01-24T05:50:21.299Z,27.37
2019-01-24T05:52:51.705Z,29.13
2019-01-24T05:55:22.348Z,27.77
2019-01-24T05:57:52.771Z,28.27
2019-01-24T06:00:29.329Z,28.43
2019-01-24T06:02:59.703Z,31.23
2019-01-24T06:05:30.073Z,30.27
2019-01-24T06:08:00.527Z,31.23
2019-01-24T06:10:31.003Z,30.20
2019-01-24T06:13:01.404Z,29.00
2019-01-24T06:15:31.858Z,31.10
2019-01-24T06:18:02.509Z,32.17
2019-01-24T06:20:32.893Z,29.00
2019-01-24T06:23:03.234Z,30.63
2019-01-24T06:25:33.680Z,30.10
2019-01-24T06:28:04.512Z,29.37
2019-01-24T06:30:35.060Z,30.60
2019-01-24T06:33:05.498Z,30.60
2019-01-24T06:35:35.958Z,27.87
2019-01-24T06:38:06.304Z,30.47
2019-01-24T06:40:36.668Z,28.97
2019-01-24T06:43:06.609Z,30.67
2019-01-24T06:45:37.077Z,28.83
2019-01-24T06:48:07.719Z,31.00
2019-01-24T06:50:39.057Z,30.40
2019-01-24T06:53:09.536Z,30.20
2019-01-24T06:55:40.215Z,30.37
2019-01-24T06:58:10.635Z,28.47
2019-01-24T07:00:41.431Z,28.77
2019-01-24T07:03:11.828Z,27.20
2019-01-24T07:05:42.208Z,30.23
2019-01-24T07:08:12.547Z,27.17
2019-01-24T07:10:42.991Z,29.13
2019-01-24T07:13:13.420Z,31.00
2019-01-24T07:15:43.830Z,30.60
2019-01-24T07:18:14.264Z,30.87
2019-01-24T07:20:44.736Z,29.17
2019-01-24T07:23:15.103Z,30.70
2019-01-24T07:25:45.482Z,29.47
2019-01-24T07:28:15.868Z,31.60
2019-01-24T07:30:46.272Z,31.93
2019-01-24T07:33:16.763Z,30.40
2019-01-24T07:35:47.214Z,31.77
2019-01-24T07:38:17.679Z,30.87
2019-01-24T07:40:48.018Z,31.43
2019-01-24T07:43:18.371Z,33.17
2019-01-24T07:45:48.822Z,34.07
2019-01-24T07:48:19.212Z,31.53
2019-01-24T07:50:49.650Z,32.27
2019-01-24T07:53:20.169Z,32.83
2019-01-24T07:55:50.601Z,33.23
2019-01-24T07:58:21.053Z,32.57
2019-01-24T08:00:51.459Z,32.17
2019-01-24T08:03:21.941Z,29.83
2019-01-24T08:05:52.338Z,30.23
2019-01-24T08:08:22.748Z,30.93
2019-01-24T08:10:53.045Z,31.37
2019-01-24T08:13:23.391Z,30.63
2019-01-24T08:15:53.809Z,29.43
2019-01-24T08:18:24.255Z,31.50
2019-01-24T08:20:54.656Z,33.33
2019-01-24T08:23:25.067Z,32.90
2019-01-24T08:25:55.430Z,31.53
2019-01-24T08:28:25.791Z,31.67
2019-01-24T08:30:56.229Z,30.63
2019-01-24T08:33:26.639Z,31.70
2019-01-24T08:35:56.979Z,27.70
2019-01-24T08:38:27.306Z,28.83
2019-01-24T08:40:57.774Z,27.90
2019-01-24T08:43:28.206Z,32.60
2019-01-24T08:45:58.623Z,28.63
2019-01-24T08:48:29.177Z,30.97
2019-01-24T08:50:59.577Z,29.53
2019-01-24T08:53:30.036Z,27.70
2019-01-24T08:56:00.449Z,28.10
2019-01-24T08:58:30.861Z,28.80
2019-01-24T09:01:01.175Z,26.83
2019-01-24T09:03:31.812Z,27.83
2019-01-24T09:06:02.239Z,29.70
2019-01-24T09:08:32.704Z,28.37
2019-01-24T09:11:03.145Z,28.10
2019-01-24T09:13:33.513Z,27.77
2019-01-24T09:16:03.878Z,26.90
2019-01-24T09:18:34.281Z,26.83
2019-01-24T09:21:04.766Z,27.70
2019-01-24T09:23:35.204Z,28.23
2019-01-24T09:26:05.955Z,27.90
2019-01-24T09:28:36.495Z,27.17
2019-01-24T09:31:06.812Z,26.47
2019-01-24T09:33:39.195Z,26.77
2019-01-24T09:36:10.110Z,27.87
2019-01-24T09:38:40.629Z,25.73
2019-01-24T09:41:11.054Z,26.37
2019-01-24T09:43:41.566Z,27.27
2019-01-24T09:46:11.929Z,28.10
2019-01-24T09:48:42.753Z,27.30
2019-01-24T09:51:13.118Z,28.70
2019-01-24T09:53:43.500Z,29.17
2019-01-24T09:56:13.830Z,25.97
2019-01-24T09:58:44.205Z,25.30
2019-01-24T10:01:14.732Z,26.73
2019-01-24T10:03:45.161Z,27.07
2019-01-24T10:06:15.538Z,24.87
2019-01-24T10:08:45.953Z,24.20
2019-01-24T10:11:16.310Z,26.53
2019-01-24T10:13:46.708Z,24.00
2019-01-24T10:16:17.065Z,26.57
2019-01-24T10:18:47.468Z,27.00
2019-01-24T10:21:17.868Z,26.70
2019-01-24T10:23:48.221Z,26.37
2019-01-24T10:26:18.693Z,25.97
2019-01-24T10:28:49.088Z,26.43
2019-01-24T10:31:19.418Z,26.13
2019-01-24T10:33:49.735Z,27.67
2019-01-24T10:36:20.056Z,26.33
2019-01-24T10:38:50.521Z,25.83
2019-01-24T10:41:20.872Z,25.93
2019-01-24T10:43:51.233Z,26.63
2019-01-24T10:46:21.607Z,27.27
2019-01-24T10:48:51.937Z,27.00
2019-01-24T10:51:22.360Z,25.03
2019-01-24T10:53:52.848Z,26.23
2019-01-24T10:56:23.204Z,27.63
2019-01-24T10:58:53.548Z,26.20
2019-01-24T11:01:24.022Z,26.97
2019-01-24T11:03:54.453Z,25.67
2019-01-24T11:06:24.859Z,26.73
2019-01-24T11:08:55.258Z,26.87
2019-01-24T11:11:25.707Z,26.03
2019-01-24T11:13:56.126Z,27.93
2019-01-24T11:16:26.477Z,27.17
2019-01-24T11:18:56.914Z,26.40
2019-01-24T11:21:27.268Z,28.37
2019-01-24T11:23:57.699Z,27.40
2019-01-24T11:26:28.117Z,29.37
2019-01-24T11:28:58.521Z,27.63
2019-01-24T11:31:28.928Z,27.37
2019-01-24T11:33:59.343Z,27.73
2019-01-24T11:36:29.805Z,29.50
2019-01-24T11:39:00.114Z,27.27
2019-01-24T11:41:30.480Z,26.43
2019-01-24T11:44:00.938Z,28.63
2019-01-24T11:46:31.386Z,27.23
2019-01-24T11:49:01.754Z,28.07
2019-01-24T11:51:32.137Z,26.40
2019-01-24T11:54:02.456Z,27.17
2019-01-24T11:56:32.813Z,28.83
2019-01-24T11:59:03.241Z,27.93
2019-01-24T12:01:33.675Z,28.03
2019-01-24T12:04:04.153Z,27.63
2019-01-24T12:06:34.590Z,28.53
2019-01-24T12:09:07.876Z,26.93
2019-01-24T12:11:40.562Z,27.13
2019-01-24T12:14:10.969Z,28.30
2019-01-24T12:16:41.486Z,27.37
2019-01-24T12:19:11.860Z,28.07
2019-01-24T12:21:43.355Z,27.30
2019-01-24T12:24:13.889Z,27.37
2019-01-24T12:26:44.343Z,28.10
2019-01-24T12:29:14.664Z,29.03
2019-01-24T12:31:45.153Z,27.97
2019-01-24T12:34:15.556Z,29.83
2019-01-24T12:36:45.977Z,27.30
2019-01-24T12:39:16.407Z,26.63
2019-01-24T12:41:46.858Z,27.40
2019-01-24T12:44:17.311Z,27.90
2019-01-24T12:46:47.839Z,27.63
2019-01-24T12:49:18.248Z,27.20
2019-01-24T12:51:50.621Z,28.07
2019-01-24T12:54:20.837Z,28.97
2019-01-24T12:56:51.216Z,31.43
2019-01-24T12:59:21.683Z,28.13
2019-01-24T13:01:52.070Z,34.47
2019-01-24T13:04:22.457Z,32.73
2019-01-24T13:06:52.797Z,30.60
2019-01-24T13:09:23.127Z,28.37
2019-01-24T13:11:53.466Z,30.30
2019-01-24T13:14:23.774Z,28.93
2019-01-24T13:16:54.193Z,27.87
2019-01-24T13:19:24.572Z,34.57
2019-01-24T13:21:55.029Z,30.60
2019-01-24T13:24:25.435Z,30.63
2019-01-24T13:26:55.842Z,28.63
2019-01-24T13:29:26.296Z,27.80
2019-01-24T13:31:56.819Z,34.60
2019-01-24T13:34:27.359Z,33.23
2019-01-24T13:36:57.885Z,30.63
2019-01-24T13:39:28.353Z,28.83
2019-01-24T13:41:58.851Z,29.93
2019-01-24T13:44:29.288Z,28.27
2019-01-24T13:46:59.628Z,27.20
2019-01-24T13:49:29.973Z,27.37
2019-01-24T13:52:00.457Z,28.37
2019-01-24T13:54:30.937Z,27.77
2019-01-24T13:57:02.040Z,29.53
2019-01-24T13:59:32.437Z,27.17
2019-01-24T14:02:02.949Z,26.30
2019-01-24T14:04:38.108Z,30.53
2019-01-24T14:07:08.582Z,31.50
2019-01-24T14:09:39.132Z,32.50
2019-01-24T14:12:09.661Z,30.23
2019-01-24T14:14:40.311Z,26.93
2019-01-24T14:17:10.886Z,28.47
2019-01-24T14:19:41.645Z,27.83
2019-01-24T14:22:12.070Z,27.37
2019-01-24T14:24:42.672Z,27.60
2019-01-24T14:27:13.105Z,27.80
2019-01-24T14:29:43.580Z,27.53
2019-01-24T14:32:13.990Z,28.20
2019-01-24T14:34:45.457Z,26.53
2019-01-24T14:37:51.255Z,26.33
2019-01-24T14:40:24.581Z,27.37
2019-01-24T14:42:55.116Z,30.97
2019-01-24T14:45:25.524Z,28.13
2019-01-24T14:47:55.910Z,29.03
2019-01-24T14:50:27.259Z,30.33
2019-01-24T14:53:01.951Z,29.23
2019-01-24T14:55:32.431Z,26.60
2019-01-24T14:58:02.816Z,26.47
2019-01-24T15:00:42.415Z,27.90
2019-01-24T15:03:12.918Z,29.73
2019-01-24T15:05:43.288Z,30.37
2019-01-24T15:08:14.884Z,27.50
2019-01-24T15:10:45.632Z,27.97
2019-01-24T15:13:16.194Z,27.57
2019-01-24T15:15:46.832Z,25.77
2019-01-24T15:18:17.993Z,29.20
2019-01-24T15:20:48.585Z,33.00
2019-01-24T15:23:19.229Z,29.33
2019-01-24T15:25:49.598Z,28.13
2019-01-24T15:28:23.044Z,25.43
2019-01-24T15:30:53.492Z,25.40
2019-01-24T15:33:24.004Z,27.33
2019-01-24T15:35:54.381Z,26.20
2019-01-24T15:38:25.208Z,28.87
2019-01-24T15:40:55.616Z,27.20
2019-01-24T15:43:26.239Z,28.47
2019-01-24T15:45:56.708Z,26.47
2019-01-24T15:48:27.359Z,26.60
2019-01-24T15:50:57.905Z,27.70
2019-01-24T15:53:28.364Z,26.90
2019-01-24T15:55:58.752Z,27.63
2019-01-24T15:58:30.600Z,26.27
2019-01-24T16:01:01.376Z,26.20
2019-01-24T16:03:32.160Z,27.77
2019-01-24T16:06:03.969Z,27.43
2019-01-24T16:08:37.678Z,26.37
2019-01-24T16:11:08.072Z,27.67
2019-01-24T16:13:38.705Z,28.93
2019-01-24T16:16:11.142Z,28.87
2019-01-24T16:18:41.553Z,29.40
2019-01-24T16:21:12.026Z,30.30
2019-01-24T16:23:42.540Z,30.37
2019-01-24T16:26:12.917Z,30.67
2019-01-24T16:28:43.418Z,32.23
2019-01-24T16:31:13.846Z,31.07
2019-01-24T16:33:44.305Z,31.23
2019-01-24T16:36:14.722Z,32.27
2019-01-24T16:38:45.210Z,31.77
2019-01-24T16:41:15.625Z,29.03
2019-01-24T16:43:46.107Z,30.23
2019-01-24T16:46:16.528Z,28.50
2019-01-24T16:48:47.990Z,29.03
2019-01-24T16:51:18.373Z,31.73
2019-01-24T16:53:48.857Z,29.73
2019-01-24T16:56:19.300Z,29.57
2019-01-24T16:58:49.759Z,28.63
2019-01-24T17:01:21.960Z,29.10
2019-01-24T17:03:52.454Z,28.37
2019-01-24T17:06:22.907Z,30.07
2019-01-24T17:08:54.744Z,28.90
2019-01-24T17:11:25.237Z,28.13
2019-01-24T17:13:55.709Z,28.13
2019-01-24T17:16:26.208Z,28.87
2019-01-24T17:18:56.646Z,30.00
2019-01-24T17:21:27.160Z,29.07
2019-01-24T17:23:57.595Z,28.73
2019-01-24T17:26:27.949Z,27.70
2019-01-24T17:28:59.609Z,30.53
2019-01-24T17:31:30.117Z,27.80
2019-01-24T17:34:02.515Z,29.10
2019-01-24T17:36:32.680Z,27.13
2019-01-24T17:39:03.172Z,28.33
2019-01-24T17:41:34.764Z,28.37
2019-01-24T17:44:05.509Z,24.97
2019-01-24T17:46:35.956Z,28.10
2019-01-24T17:49:06.882Z,27.40
2019-01-24T17:51:37.419Z,27.40
2019-01-24T17:54:07.939Z,29.40
2019-01-24T17:56:38.769Z,28.53
2019-01-24T17:59:09.121Z,28.50
2019-01-24T18:01:39.742Z,29.40
2019-01-24T18:04:10.085Z,30.77
2019-01-24T18:06:40.671Z,29.73
2019-01-24T18:09:11.078Z,31.87
2019-01-24T18:11:42.956Z,29.93
2019-01-24T18:14:13.357Z,30.60
2019-01-24T18:16:44.197Z,30.27
2019-01-24T18:19:15.023Z,30.30
2019-01-24T18:21:47.400Z,30.10
2019-01-24T18:24:20.469Z,28.07
2019-01-24T18:26:53.192Z,27.97
2019-01-24T18:29:23.632Z,30.23
2019-01-24T18:31:54.101Z,33.53
2019-01-24T18:34:24.904Z,31.63
2019-01-24T18:36:55.449Z,32.33
2019-01-24T18:39:25.904Z,31.23
2019-01-24T18:41:57.018Z,27.20
2019-01-24T18:44:27.754Z,26.93
2019-01-24T18:47:00.105Z,26.47
2019-01-24T18:49:30.407Z,27.37
2019-01-24T18:52:03.024Z,25.13
2019-01-24T18:54:34.755Z,25.37
2019-01-24T18:57:06.948Z,25.60
2019-01-24T18:59:37.693Z,26.43
2019-01-24T19:02:10.432Z,27.20
2019-01-24T19:04:43.748Z,26.60
2019-01-24T19:07:15.344Z,27.43
2019-01-24T19:09:46.707Z,27.43
2019-01-24T19:12:18.190Z,29.20
2019-01-24T19:14:49.960Z,27.80
2019-01-24T19:17:20.473Z,29.07
2019-01-24T19:19:50.952Z,28.00
2019-01-24T19:22:21.393Z,29.83
2019-01-24T19:24:51.865Z,27.77
2019-01-24T19:27:23.408Z,28.83
2019-01-24T19:29:53.990Z,30.37
2019-01-24T19:32:24.584Z,29.60
2019-01-24T19:34:54.850Z,29.37
2019-01-24T19:37:25.277Z,28.90
2019-01-24T19:39:55.778Z,29.17
2019-01-24T19:42:26.373Z,29.40
2019-01-24T19:44:56.808Z,30.43
2019-01-24T19:47:27.621Z,27.97
2019-01-24T19:49:57.989Z,27.63
2019-01-24T19:52:29.027Z,28.57
2019-01-24T19:55:03.519Z,27.50
2019-01-24T19:57:33.947Z,28.83
2019-01-24T20:00:05.749Z,27.77
2019-01-24T20:02:36.501Z,29.50
2019-01-24T20:05:08.137Z,29.33
2019-01-24T20:10:36.736Z,28.87
2019-01-24T20:13:07.941Z,29.23
2019-01-24T20:15:39.619Z,27.93
2019-01-24T20:18:11.415Z,30.17
2019-01-24T20:20:42.114Z,30.40
2019-01-24T20:23:12.472Z,28.90
2019-01-24T20:25:43.137Z,29.30
2019-01-24T20:28:13.611Z,28.53
2019-01-24T20:30:44.335Z,28.23
2019-01-24T20:33:15.128Z,28.50
2019-01-24T20:35:52.390Z,27.73
2019-01-24T20:38:22.885Z,26.60
2019-01-24T20:40:53.399Z,28.50
2019-01-24T20:47:02.681Z,28.80
2019-01-24T20:51:14.762Z,27.90
2019-01-24T20:53:45.208Z,28.87
2019-01-24T20:56:15.554Z,27.30
2019-01-24T20:58:46.165Z,25.60
2019-01-24T21:01:16.594Z,25.67
2019-01-24T21:03:47.135Z,24.47
2019-01-24T21:06:17.665Z,29.23
2019-01-24T21:08:48.147Z,28.87
2019-01-24T21:11:19.711Z,27.77
2019-01-24T21:13:50.166Z,27.93
2019-01-24T21:16:20.757Z,26.03
2019-01-24T21:18:51.379Z,27.13
2019-01-24T21:21:21.808Z,24.77
2019-01-24T21:23:52.349Z,23.20
2019-01-24T21:26:22.801Z,24.60
2019-01-24T21:28:53.331Z,23.73
2019-01-24T21:31:23.969Z,23.93
2019-01-24T21:33:54.461Z,24.97
2019-01-24T21:36:24.945Z,24.63
2019-01-24T21:38:55.456Z,29.97
2019-01-24T21:41:25.892Z,28.47
2019-01-24T21:43:56.361Z,23.93
2019-01-24T21:46:27.984Z,26.93
2019-01-24T21:48:58.410Z,26.70
2019-01-24T21:51:28.895Z,26.03
2019-01-24T21:53:59.392Z,24.87
2019-01-24T21:56:29.820Z,26.10
2019-01-24T21:59:00.322Z,24.33
2019-01-24T22:01:30.854Z,23.57
2019-01-24T22:04:01.365Z,26.70
2019-01-24T22:06:31.877Z,25.90
2019-01-24T22:09:02.414Z,25.30
2019-01-24T22:11:32.884Z,25.33
2019-01-24T22:14:03.448Z,25.63
2019-01-24T22:16:33.799Z,23.33
2019-01-24T22:19:04.190Z,24.57
2019-01-24T22:21:34.658Z,25.30
2019-01-24T22:24:05.472Z,25.60
2019-01-24T22:26:35.987Z,26.77
2019-01-24T22:29:06.609Z,28.33
2019-01-24T22:31:37.129Z,27.00
2019-01-24T22:34:07.525Z,25.63
2019-01-24T22:36:38.282Z,25.73
2019-01-24T22:39:10.182Z,26.20
2019-01-24T22:41:40.631Z,25.87
2019-01-24T22:44:11.049Z,25.80
2019-01-24T22:46:41.570Z,26.23
2019-01-24T22:49:12.006Z,24.97
2019-01-24T22:51:42.340Z,25.73
2019-01-24T22:54:12.883Z,25.83
2019-01-24T22:56:43.349Z,25.67
2019-01-24T22:59:13.845Z,25.40
2019-01-24T23:02:04.110Z,25.17
2019-01-24T23:04:35.696Z,23.67
2019-01-24T23:07:06.130Z,24.17
2019-01-24T23:09:36.553Z,24.67
2019-01-24T23:12:06.930Z,24.93
2019-01-24T23:14:38.858Z,24.67
2019-01-24T23:17:09.301Z,26.27
2019-01-24T23:19:40.135Z,25.47
2019-01-24T23:22:10.668Z,25.27
2019-01-24T23:24:41.224Z,27.27
2019-01-24T23:27:12.318Z,24.33
2019-01-24T23:29:42.753Z,25.10
2019-01-24T23:32:13.090Z,24.20
2019-01-24T23:34:43.573Z,25.80
2019-01-24T23:37:14.247Z,25.87
2019-01-24T23:39:51.332Z,25.50
2019-01-24T23:42:16.677Z,24.70
2019-01-24T23:44:47.024Z,23.43
2019-01-24T23:47:17.425Z,25.03
2019-01-24T23:49:47.875Z,24.80
2019-01-24T23:52:18.477Z,24.13
2019-01-24T23:54:48.824Z,21.40
2019-01-24T23:57:23.886Z,23.67
2019-01-24T23:59:51.486Z,21.03
